sensor_id;sensor_type;location;lat;lon;timestamp;P1;durP1;ratioP1;P2;durP2;ratioP2
7737;SDS011;29398;45.328;5.558;2024-02-28T00:00:23;20.08;;;16.70;;
7737;SDS011;29398;45.328;5.558;2024-02-28T00:01:25;16.95;;;14.55;;
7737;SDS011;29398;45.328;5.558;2024-02-28T00:02:26;19.27;;;15.70;;
7737;SDS011;29398;45.328;5.558;2024-02-28T00:03:31;17.33;;;14.48;;
7737;SDS011;29398;45.328;5.558;2024-02-28T00:04:33;18.80;;;15.68;;
7737;SDS011;29398;45.328;5.558;2024-02-28T00:05:35;18.63;;;15.38;;
7737;SDS011;29398;45.328;5.558;2024-02-28T00:06:36;20.08;;;15.73;;
7737;SDS011;29398;45.328;5.558;2024-02-28T00:07:38;17.20;;;15.40;;
7737;SDS011;29398;45.328;5.558;2024-02-28T00:08:39;19.13;;;15.27;;
7737;SDS011;29398;45.328;5.558;2024-02-28T00:09:41;17.45;;;15.43;;
7737;SDS011;29398;45.328;5.558;2024-02-28T00:10:42;19.27;;;15.50;;
7737;SDS011;29398;45.328;5.558;2024-02-28T00:11:44;17.58;;;15.15;;
7737;SDS011;29398;45.328;5.558;2024-02-28T00:12:47;20.65;;;17.02;;
7737;SDS011;29398;45.328;5.558;2024-02-28T00:13:49;18.80;;;16.35;;
7737;SDS011;29398;45.328;5.558;2024-02-28T00:14:50;18.67;;;15.57;;
7737;SDS011;29398;45.328;5.558;2024-02-28T00:15:52;19.58;;;16.10;;
7737;SDS011;29398;45.328;5.558;2024-02-28T00:16:53;17.98;;;15.98;;
7737;SDS011;29398;45.328;5.558;2024-02-28T00:17:55;18.13;;;15.70;;
7737;SDS011;29398;45.328;5.558;2024-02-28T00:18:57;19.33;;;16.90;;
7737;SDS011;29398;45.328;5.558;2024-02-28T00:19:59;21.33;;;17.63;;
7737;SDS011;29398;45.328;5.558;2024-02-28T00:21:00;19.08;;;16.17;;
7737;SDS011;29398;45.328;5.558;2024-02-28T00:22:03;18.85;;;16.17;;
7737;SDS011;29398;45.328;5.558;2024-02-28T00:23:04;21.10;;;17.15;;
7737;SDS011;29398;45.328;5.558;2024-02-28T00:24:07;20.38;;;17.10;;
7737;SDS011;29398;45.328;5.558;2024-02-28T00:25:08;19.33;;;15.88;;
7737;SDS011;29398;45.328;5.558;2024-02-28T00:26:11;21.63;;;17.75;;
7737;SDS011;29398;45.328;5.558;2024-02-28T00:27:13;22.25;;;17.30;;
7737;SDS011;29398;45.328;5.558;2024-02-28T00:28:15;21.17;;;16.55;;
7737;SDS011;29398;45.328;5.558;2024-02-28T00:29:16;22.80;;;18.33;;
7737;SDS011;29398;45.328;5.558;2024-02-28T00:30:18;19.25;;;17.25;;
7737;SDS011;29398;45.328;5.558;2024-02-28T00:31:19;20.75;;;17.40;;
7737;SDS011;29398;45.328;5.558;2024-02-28T00:32:21;22.35;;;16.83;;
7737;SDS011;29398;45.328;5.558;2024-02-28T00:33:22;23.88;;;18.63;;
7737;SDS011;29398;45.328;5.558;2024-02-28T00:34:25;22.00;;;17.60;;
7737;SDS011;29398;45.328;5.558;2024-02-28T00:35:26;20.15;;;17.85;;
7737;SDS011;29398;45.328;5.558;2024-02-28T00:36:29;19.27;;;16.50;;
7737;SDS011;29398;45.328;5.558;2024-02-28T00:37:30;19.88;;;17.63;;
7737;SDS011;29398;45.328;5.558;2024-02-28T00:38:33;20.17;;;17.30;;
7737;SDS011;29398;45.328;5.558;2024-02-28T00:39:34;21.95;;;19.00;;
7737;SDS011;29398;45.328;5.558;2024-02-28T00:40:36;21.73;;;17.75;;
7737;SDS011;29398;45.328;5.558;2024-02-28T00:41:38;23.42;;;18.65;;
7737;SDS011;29398;45.328;5.558;2024-02-28T00:42:40;22.58;;;18.88;;
7737;SDS011;29398;45.328;5.558;2024-02-28T00:43:41;23.73;;;19.17;;
7737;SDS011;29398;45.328;5.558;2024-02-28T00:44:43;21.35;;;18.55;;
7737;SDS011;29398;45.328;5.558;2024-02-28T00:45:44;21.50;;;17.55;;
7737;SDS011;29398;45.328;5.558;2024-02-28T00:46:46;23.88;;;18.85;;
7737;SDS011;29398;45.328;5.558;2024-02-28T00:47:47;24.75;;;19.65;;
7737;SDS011;29398;45.328;5.558;2024-02-28T00:48:49;20.20;;;17.48;;
7737;SDS011;29398;45.328;5.558;2024-02-28T00:49:51;22.42;;;18.48;;
7737;SDS011;29398;45.328;5.558;2024-02-28T00:50:53;21.58;;;18.33;;
7737;SDS011;29398;45.328;5.558;2024-02-28T00:51:56;24.50;;;19.35;;
7737;SDS011;29398;45.328;5.558;2024-02-28T00:52:56;23.08;;;18.98;;
7737;SDS011;29398;45.328;5.558;2024-02-28T00:53:59;20.75;;;18.15;;
7737;SDS011;29398;45.328;5.558;2024-02-28T00:55:00;21.48;;;18.83;;
7737;SDS011;29398;45.328;5.558;2024-02-28T00:56:02;20.58;;;17.63;;
7737;SDS011;29398;45.328;5.558;2024-02-28T00:57:04;21.10;;;18.17;;
7737;SDS011;29398;45.328;5.558;2024-02-28T00:58:06;20.90;;;17.85;;
7737;SDS011;29398;45.328;5.558;2024-02-28T00:59:07;22.13;;;18.17;;
7737;SDS011;29398;45.328;5.558;2024-02-28T01:00:11;22.42;;;19.23;;
7737;SDS011;29398;45.328;5.558;2024-02-28T01:01:13;22.40;;;18.88;;
7737;SDS011;29398;45.328;5.558;2024-02-28T01:02:14;22.73;;;19.45;;
7737;SDS011;29398;45.328;5.558;2024-02-28T01:03:16;22.02;;;18.30;;
7737;SDS011;29398;45.328;5.558;2024-02-28T01:04:18;19.15;;;16.77;;
7737;SDS011;29398;45.328;5.558;2024-02-28T01:05:22;22.88;;;19.45;;
7737;SDS011;29398;45.328;5.558;2024-02-28T01:06:23;21.95;;;18.25;;
7737;SDS011;29398;45.328;5.558;2024-02-28T01:07:25;20.05;;;17.65;;
7737;SDS011;29398;45.328;5.558;2024-02-28T01:08:26;22.08;;;18.23;;
7737;SDS011;29398;45.328;5.558;2024-02-28T01:09:27;23.50;;;17.90;;
7737;SDS011;29398;45.328;5.558;2024-02-28T01:10:29;20.60;;;18.15;;
7737;SDS011;29398;45.328;5.558;2024-02-28T01:11:30;22.92;;;18.40;;
7737;SDS011;29398;45.328;5.558;2024-02-28T01:12:31;22.45;;;18.98;;
7737;SDS011;29398;45.328;5.558;2024-02-28T01:13:33;23.65;;;19.45;;
7737;SDS011;29398;45.328;5.558;2024-02-28T01:14:34;20.65;;;17.60;;
7737;SDS011;29398;45.328;5.558;2024-02-28T01:15:35;21.30;;;17.88;;
7737;SDS011;29398;45.328;5.558;2024-02-28T01:16:37;21.95;;;18.63;;
7737;SDS011;29398;45.328;5.558;2024-02-28T01:17:38;21.98;;;18.65;;
7737;SDS011;29398;45.328;5.558;2024-02-28T01:18:40;21.85;;;18.20;;
7737;SDS011;29398;45.328;5.558;2024-02-28T01:19:41;23.42;;;19.35;;
7737;SDS011;29398;45.328;5.558;2024-02-28T01:20:44;22.45;;;19.40;;
7737;SDS011;29398;45.328;5.558;2024-02-28T01:21:45;21.85;;;18.60;;
7737;SDS011;29398;45.328;5.558;2024-02-28T01:22:47;24.60;;;18.13;;
7737;SDS011;29398;45.328;5.558;2024-02-28T01:23:48;25.13;;;19.63;;
7737;SDS011;29398;45.328;5.558;2024-02-28T01:24:50;24.52;;;18.83;;
7737;SDS011;29398;45.328;5.558;2024-02-28T01:25:51;22.67;;;19.33;;
7737;SDS011;29398;45.328;5.558;2024-02-28T01:26:53;22.25;;;18.38;;
7737;SDS011;29398;45.328;5.558;2024-02-28T01:27:55;21.08;;;18.75;;
7737;SDS011;29398;45.328;5.558;2024-02-28T01:28:58;20.23;;;17.75;;
7737;SDS011;29398;45.328;5.558;2024-02-28T01:29:59;23.15;;;19.00;;
7737;SDS011;29398;45.328;5.558;2024-02-28T01:31:01;21.15;;;18.10;;
7737;SDS011;29398;45.328;5.558;2024-02-28T01:32:03;22.63;;;17.77;;
7737;SDS011;29398;45.328;5.558;2024-02-28T01:33:05;23.77;;;19.55;;
7737;SDS011;29398;45.328;5.558;2024-02-28T01:34:06;22.95;;;18.08;;
7737;SDS011;29398;45.328;5.558;2024-02-28T01:35:09;21.98;;;19.35;;
7737;SDS011;29398;45.328;5.558;2024-02-28T01:36:12;24.65;;;19.17;;
7737;SDS011;29398;45.328;5.558;2024-02-28T01:37:13;23.92;;;19.73;;
7737;SDS011;29398;45.328;5.558;2024-02-28T01:38:15;22.88;;;18.77;;
7737;SDS011;29398;45.328;5.558;2024-02-28T01:39:16;23.70;;;19.55;;
7737;SDS011;29398;45.328;5.558;2024-02-28T01:40:18;23.90;;;20.20;;
7737;SDS011;29398;45.328;5.558;2024-02-28T01:41:19;22.48;;;19.55;;
7737;SDS011;29398;45.328;5.558;2024-02-28T01:42:21;21.63;;;18.50;;
7737;SDS011;29398;45.328;5.558;2024-02-28T01:43:22;23.50;;;19.33;;
7737;SDS011;29398;45.328;5.558;2024-02-28T01:44:24;24.92;;;20.13;;
7737;SDS011;29398;45.328;5.558;2024-02-28T01:45:25;24.90;;;19.38;;
7737;SDS011;29398;45.328;5.558;2024-02-28T01:46:28;22.60;;;19.23;;
7737;SDS011;29398;45.328;5.558;2024-02-28T01:47:29;22.52;;;18.88;;
7737;SDS011;29398;45.328;5.558;2024-02-28T01:48:31;22.95;;;19.92;;
7737;SDS011;29398;45.328;5.558;2024-02-28T01:49:33;20.13;;;17.88;;
7737;SDS011;29398;45.328;5.558;2024-02-28T01:50:35;21.70;;;19.30;;
7737;SDS011;29398;45.328;5.558;2024-02-28T01:51:38;22.50;;;18.45;;
7737;SDS011;29398;45.328;5.558;2024-02-28T01:52:41;22.05;;;19.35;;
7737;SDS011;29398;45.328;5.558;2024-02-28T01:53:42;22.85;;;18.83;;
7737;SDS011;29398;45.328;5.558;2024-02-28T01:54:45;20.08;;;17.15;;
7737;SDS011;29398;45.328;5.558;2024-02-28T01:55:46;22.60;;;18.70;;
7737;SDS011;29398;45.328;5.558;2024-02-28T01:56:49;22.60;;;18.95;;
7737;SDS011;29398;45.328;5.558;2024-02-28T01:57:50;20.33;;;18.10;;
7737;SDS011;29398;45.328;5.558;2024-02-28T01:58:53;23.58;;;18.58;;
7737;SDS011;29398;45.328;5.558;2024-02-28T01:59:55;20.48;;;16.88;;
7737;SDS011;29398;45.328;5.558;2024-02-28T02:00:58;23.67;;;20.30;;
7737;SDS011;29398;45.328;5.558;2024-02-28T02:02:00;23.83;;;19.50;;
7737;SDS011;29398;45.328;5.558;2024-02-28T02:03:03;21.13;;;18.30;;
7737;SDS011;29398;45.328;5.558;2024-02-28T02:04:04;22.30;;;18.85;;
7737;SDS011;29398;45.328;5.558;2024-02-28T02:05:07;21.55;;;19.08;;
7737;SDS011;29398;45.328;5.558;2024-02-28T02:06:09;25.08;;;19.95;;
7737;SDS011;29398;45.328;5.558;2024-02-28T02:07:13;21.77;;;18.58;;
7737;SDS011;29398;45.328;5.558;2024-02-28T02:08:14;21.55;;;18.42;;
7737;SDS011;29398;45.328;5.558;2024-02-28T02:09:16;23.90;;;19.40;;
7737;SDS011;29398;45.328;5.558;2024-02-28T02:10:17;22.48;;;17.98;;
7737;SDS011;29398;45.328;5.558;2024-02-28T02:11:19;23.10;;;19.92;;
7737;SDS011;29398;45.328;5.558;2024-02-28T02:12:21;21.92;;;19.10;;
7737;SDS011;29398;45.328;5.558;2024-02-28T02:13:22;22.83;;;18.63;;
7737;SDS011;29398;45.328;5.558;2024-02-28T02:14:24;22.48;;;18.67;;
7737;SDS011;29398;45.328;5.558;2024-02-28T02:15:25;21.40;;;17.42;;
7737;SDS011;29398;45.328;5.558;2024-02-28T02:16:29;25.13;;;19.70;;
7737;SDS011;29398;45.328;5.558;2024-02-28T02:17:30;23.08;;;19.00;;
7737;SDS011;29398;45.328;5.558;2024-02-28T02:18:32;22.52;;;19.20;;
7737;SDS011;29398;45.328;5.558;2024-02-28T02:19:33;21.25;;;18.95;;
7737;SDS011;29398;45.328;5.558;2024-02-28T02:20:35;27.27;;;20.08;;
7737;SDS011;29398;45.328;5.558;2024-02-28T02:21:47;25.23;;;18.77;;
7737;SDS011;29398;45.328;5.558;2024-02-28T02:22:53;23.60;;;18.42;;
7737;SDS011;29398;45.328;5.558;2024-02-28T02:23:54;21.35;;;18.42;;
7737;SDS011;29398;45.328;5.558;2024-02-28T02:24:56;22.13;;;18.20;;
7737;SDS011;29398;45.328;5.558;2024-02-28T02:25:59;24.25;;;19.00;;
7737;SDS011;29398;45.328;5.558;2024-02-28T02:27:01;22.92;;;19.35;;
7737;SDS011;29398;45.328;5.558;2024-02-28T02:28:05;22.15;;;19.45;;
7737;SDS011;29398;45.328;5.558;2024-02-28T02:29:07;25.60;;;19.58;;
7737;SDS011;29398;45.328;5.558;2024-02-28T02:30:10;22.77;;;17.98;;
7737;SDS011;29398;45.328;5.558;2024-02-28T02:31:13;24.02;;;18.63;;
7737;SDS011;29398;45.328;5.558;2024-02-28T02:32:14;23.98;;;20.27;;
7737;SDS011;29398;45.328;5.558;2024-02-28T02:33:15;26.38;;;20.63;;
7737;SDS011;29398;45.328;5.558;2024-02-28T02:34:17;25.52;;;21.27;;
7737;SDS011;29398;45.328;5.558;2024-02-28T02:35:18;23.83;;;20.27;;
7737;SDS011;29398;45.328;5.558;2024-02-28T02:36:19;23.23;;;20.55;;
7737;SDS011;29398;45.328;5.558;2024-02-28T02:37:21;27.45;;;21.98;;
7737;SDS011;29398;45.328;5.558;2024-02-28T02:38:23;24.48;;;21.52;;
7737;SDS011;29398;45.328;5.558;2024-02-28T02:39:25;23.92;;;20.42;;
7737;SDS011;29398;45.328;5.558;2024-02-28T02:40:26;25.30;;;21.17;;
7737;SDS011;29398;45.328;5.558;2024-02-28T02:41:28;25.27;;;20.95;;
7737;SDS011;29398;45.328;5.558;2024-02-28T02:42:29;24.05;;;20.73;;
7737;SDS011;29398;45.328;5.558;2024-02-28T02:43:30;25.80;;;20.02;;
7737;SDS011;29398;45.328;5.558;2024-02-28T02:44:33;26.38;;;20.27;;
7737;SDS011;29398;45.328;5.558;2024-02-28T02:45:35;26.42;;;21.63;;
7737;SDS011;29398;45.328;5.558;2024-02-28T02:46:36;25.65;;;20.38;;
7737;SDS011;29398;45.328;5.558;2024-02-28T02:47:38;25.27;;;21.35;;
7737;SDS011;29398;45.328;5.558;2024-02-28T02:48:40;26.40;;;20.92;;
7737;SDS011;29398;45.328;5.558;2024-02-28T02:49:41;26.98;;;22.35;;
7737;SDS011;29398;45.328;5.558;2024-02-28T02:50:43;27.63;;;21.67;;
7737;SDS011;29398;45.328;5.558;2024-02-28T02:51:44;25.08;;;20.45;;
7737;SDS011;29398;45.328;5.558;2024-02-28T02:52:46;27.58;;;21.98;;
7737;SDS011;29398;45.328;5.558;2024-02-28T02:53:48;25.92;;;21.42;;
7737;SDS011;29398;45.328;5.558;2024-02-28T02:54:50;25.88;;;20.60;;
7737;SDS011;29398;45.328;5.558;2024-02-28T02:55:51;27.27;;;22.55;;
7737;SDS011;29398;45.328;5.558;2024-02-28T02:56:54;25.63;;;21.60;;
7737;SDS011;29398;45.328;5.558;2024-02-28T02:57:55;26.48;;;21.88;;
7737;SDS011;29398;45.328;5.558;2024-02-28T02:58:57;24.90;;;21.10;;
7737;SDS011;29398;45.328;5.558;2024-02-28T02:59:58;26.75;;;21.65;;
7737;SDS011;29398;45.328;5.558;2024-02-28T03:00:59;27.63;;;21.92;;
7737;SDS011;29398;45.328;5.558;2024-02-28T03:02:01;27.25;;;22.25;;
7737;SDS011;29398;45.328;5.558;2024-02-28T03:03:04;24.88;;;20.50;;
7737;SDS011;29398;45.328;5.558;2024-02-28T03:04:05;27.77;;;22.00;;
7737;SDS011;29398;45.328;5.558;2024-02-28T03:05:08;25.63;;;21.23;;
7737;SDS011;29398;45.328;5.558;2024-02-28T03:06:09;25.85;;;21.73;;
7737;SDS011;29398;45.328;5.558;2024-02-28T03:07:11;28.85;;;23.27;;
7737;SDS011;29398;45.328;5.558;2024-02-28T03:08:12;29.17;;;21.98;;
7737;SDS011;29398;45.328;5.558;2024-02-28T03:09:15;27.33;;;22.30;;
7737;SDS011;29398;45.328;5.558;2024-02-28T03:10:16;25.25;;;20.92;;
7737;SDS011;29398;45.328;5.558;2024-02-28T03:11:18;26.55;;;21.65;;
7737;SDS011;29398;45.328;5.558;2024-02-28T03:12:19;28.30;;;22.50;;
7737;SDS011;29398;45.328;5.558;2024-02-28T03:13:22;25.23;;;21.15;;
7737;SDS011;29398;45.328;5.558;2024-02-28T03:14:23;28.15;;;23.08;;
7737;SDS011;29398;45.328;5.558;2024-02-28T03:15:27;27.80;;;21.60;;
7737;SDS011;29398;45.328;5.558;2024-02-28T03:16:28;32.60;;;23.80;;
7737;SDS011;29398;45.328;5.558;2024-02-28T03:17:30;27.13;;;22.42;;
7737;SDS011;29398;45.328;5.558;2024-02-28T03:18:31;28.80;;;23.23;;
7737;SDS011;29398;45.328;5.558;2024-02-28T03:19:33;29.77;;;22.58;;
7737;SDS011;29398;45.328;5.558;2024-02-28T03:20:36;27.35;;;22.70;;
7737;SDS011;29398;45.328;5.558;2024-02-28T03:21:38;27.42;;;21.75;;
7737;SDS011;29398;45.328;5.558;2024-02-28T03:22:39;27.75;;;22.08;;
7737;SDS011;29398;45.328;5.558;2024-02-28T03:23:42;28.83;;;21.95;;
7737;SDS011;29398;45.328;5.558;2024-02-28T03:24:44;27.10;;;22.23;;
7737;SDS011;29398;45.328;5.558;2024-02-28T03:25:47;27.05;;;21.88;;
7737;SDS011;29398;45.328;5.558;2024-02-28T03:26:48;27.30;;;22.45;;
7737;SDS011;29398;45.328;5.558;2024-02-28T03:27:50;28.08;;;22.70;;
7737;SDS011;29398;45.328;5.558;2024-02-28T03:28:50;30.88;;;23.75;;
7737;SDS011;29398;45.328;5.558;2024-02-28T03:29:53;27.45;;;22.58;;
7737;SDS011;29398;45.328;5.558;2024-02-28T03:30:54;30.08;;;22.98;;
7737;SDS011;29398;45.328;5.558;2024-02-28T03:31:56;28.33;;;22.95;;
7737;SDS011;29398;45.328;5.558;2024-02-28T03:32:58;27.33;;;22.13;;
7737;SDS011;29398;45.328;5.558;2024-02-28T03:33:59;26.73;;;22.10;;
7737;SDS011;29398;45.328;5.558;2024-02-28T03:35:01;24.65;;;20.58;;
7737;SDS011;29398;45.328;5.558;2024-02-28T03:36:03;25.60;;;21.67;;
7737;SDS011;29398;45.328;5.558;2024-02-28T03:37:05;28.60;;;23.30;;
7737;SDS011;29398;45.328;5.558;2024-02-28T03:38:06;26.73;;;22.05;;
7737;SDS011;29398;45.328;5.558;2024-02-28T03:39:08;25.13;;;20.55;;
7737;SDS011;29398;45.328;5.558;2024-02-28T03:40:11;25.55;;;21.00;;
7737;SDS011;29398;45.328;5.558;2024-02-28T03:41:14;27.98;;;22.25;;
7737;SDS011;29398;45.328;5.558;2024-02-28T03:42:16;27.65;;;22.08;;
7737;SDS011;29398;45.328;5.558;2024-02-28T03:43:17;27.42;;;21.85;;
7737;SDS011;29398;45.328;5.558;2024-02-28T03:44:19;27.85;;;22.13;;
7737;SDS011;29398;45.328;5.558;2024-02-28T03:45:22;27.92;;;22.85;;
7737;SDS011;29398;45.328;5.558;2024-02-28T03:46:24;27.73;;;22.20;;
7737;SDS011;29398;45.328;5.558;2024-02-28T03:47:25;28.20;;;22.15;;
7737;SDS011;29398;45.328;5.558;2024-02-28T03:48:27;31.40;;;23.88;;
7737;SDS011;29398;45.328;5.558;2024-02-28T03:49:28;29.85;;;23.08;;
7737;SDS011;29398;45.328;5.558;2024-02-28T03:50:30;27.60;;;22.90;;
7737;SDS011;29398;45.328;5.558;2024-02-28T03:51:31;26.75;;;22.05;;
7737;SDS011;29398;45.328;5.558;2024-02-28T03:52:33;26.73;;;21.50;;
7737;SDS011;29398;45.328;5.558;2024-02-28T03:53:34;27.55;;;21.77;;
7737;SDS011;29398;45.328;5.558;2024-02-28T03:54:36;29.60;;;22.85;;
7737;SDS011;29398;45.328;5.558;2024-02-28T03:55:38;27.17;;;22.13;;
7737;SDS011;29398;45.328;5.558;2024-02-28T03:56:40;26.95;;;21.33;;
7737;SDS011;29398;45.328;5.558;2024-02-28T03:57:41;28.08;;;22.00;;
7737;SDS011;29398;45.328;5.558;2024-02-28T03:58:44;27.95;;;22.00;;
7737;SDS011;29398;45.328;5.558;2024-02-28T03:59:45;26.55;;;21.63;;
7737;SDS011;29398;45.328;5.558;2024-02-28T04:00:47;29.77;;;22.85;;
7737;SDS011;29398;45.328;5.558;2024-02-28T04:01:48;27.25;;;22.40;;
7737;SDS011;29398;45.328;5.558;2024-02-28T04:02:50;27.88;;;22.27;;
7737;SDS011;29398;45.328;5.558;2024-02-28T04:03:51;27.50;;;22.80;;
7737;SDS011;29398;45.328;5.558;2024-02-28T04:04:52;29.40;;;22.02;;
7737;SDS011;29398;45.328;5.558;2024-02-28T04:05:54;30.33;;;23.25;;
7737;SDS011;29398;45.328;5.558;2024-02-28T04:06:55;32.20;;;23.90;;
7737;SDS011;29398;45.328;5.558;2024-02-28T04:07:57;27.50;;;22.17;;
7737;SDS011;29398;45.328;5.558;2024-02-28T04:08:58;30.10;;;22.98;;
7737;SDS011;29398;45.328;5.558;2024-02-28T04:10:00;27.38;;;22.55;;
7737;SDS011;29398;45.328;5.558;2024-02-28T04:11:06;30.73;;;24.02;;
7737;SDS011;29398;45.328;5.558;2024-02-28T04:12:07;33.70;;;25.05;;
7737;SDS011;29398;45.328;5.558;2024-02-28T04:13:09;30.35;;;22.95;;
7737;SDS011;29398;45.328;5.558;2024-02-28T04:14:10;30.75;;;23.27;;
7737;SDS011;29398;45.328;5.558;2024-02-28T04:15:12;27.42;;;22.02;;
7737;SDS011;29398;45.328;5.558;2024-02-28T04:16:14;30.48;;;23.42;;
7737;SDS011;29398;45.328;5.558;2024-02-28T04:17:15;28.45;;;22.75;;
7737;SDS011;29398;45.328;5.558;2024-02-28T04:18:17;32.67;;;24.40;;
7737;SDS011;29398;45.328;5.558;2024-02-28T04:19:18;30.13;;;23.60;;
7737;SDS011;29398;45.328;5.558;2024-02-28T04:20:20;34.90;;;25.10;;
7737;SDS011;29398;45.328;5.558;2024-02-28T04:21:21;30.27;;;23.13;;
7737;SDS011;29398;45.328;5.558;2024-02-28T04:22:23;32.30;;;24.90;;
7737;SDS011;29398;45.328;5.558;2024-02-28T04:23:24;31.48;;;24.52;;
7737;SDS011;29398;45.328;5.558;2024-02-28T04:24:26;31.88;;;24.88;;
7737;SDS011;29398;45.328;5.558;2024-02-28T04:25:27;29.13;;;22.75;;
7737;SDS011;29398;45.328;5.558;2024-02-28T04:26:30;31.00;;;24.67;;
7737;SDS011;29398;45.328;5.558;2024-02-28T04:27:31;32.42;;;25.05;;
7737;SDS011;29398;45.328;5.558;2024-02-28T04:28:33;31.88;;;25.15;;
7737;SDS011;29398;45.328;5.558;2024-02-28T04:29:34;30.30;;;24.30;;
7737;SDS011;29398;45.328;5.558;2024-02-28T04:30:36;27.83;;;22.50;;
7737;SDS011;29398;45.328;5.558;2024-02-28T04:31:37;33.08;;;25.23;;
7737;SDS011;29398;45.328;5.558;2024-02-28T04:32:39;31.23;;;24.52;;
7737;SDS011;29398;45.328;5.558;2024-02-28T04:33:40;31.60;;;24.67;;
7737;SDS011;29398;45.328;5.558;2024-02-28T04:34:42;31.48;;;25.13;;
7737;SDS011;29398;45.328;5.558;2024-02-28T04:35:43;29.92;;;24.30;;
7737;SDS011;29398;45.328;5.558;2024-02-28T04:36:45;29.55;;;23.90;;
7737;SDS011;29398;45.328;5.558;2024-02-28T04:37:47;31.45;;;25.02;;
7737;SDS011;29398;45.328;5.558;2024-02-28T04:38:48;35.35;;;26.45;;
7737;SDS011;29398;45.328;5.558;2024-02-28T04:39:50;33.35;;;25.10;;
7737;SDS011;29398;45.328;5.558;2024-02-28T04:40:51;30.77;;;24.40;;
7737;SDS011;29398;45.328;5.558;2024-02-28T04:41:54;32.20;;;25.02;;
7737;SDS011;29398;45.328;5.558;2024-02-28T04:42:55;32.35;;;25.20;;
7737;SDS011;29398;45.328;5.558;2024-02-28T04:43:57;32.30;;;25.13;;
7737;SDS011;29398;45.328;5.558;2024-02-28T04:44:58;30.73;;;24.75;;
7737;SDS011;29398;45.328;5.558;2024-02-28T04:46:00;32.15;;;25.27;;
7737;SDS011;29398;45.328;5.558;2024-02-28T04:47:04;32.30;;;24.65;;
7737;SDS011;29398;45.328;5.558;2024-02-28T04:48:05;32.95;;;25.02;;
7737;SDS011;29398;45.328;5.558;2024-02-28T04:49:08;30.00;;;22.67;;
7737;SDS011;29398;45.328;5.558;2024-02-28T04:50:09;32.65;;;24.80;;
7737;SDS011;29398;45.328;5.558;2024-02-28T04:51:14;32.70;;;24.60;;
7737;SDS011;29398;45.328;5.558;2024-02-28T04:52:15;32.60;;;24.83;;
7737;SDS011;29398;45.328;5.558;2024-02-28T04:53:17;32.85;;;25.50;;
7737;SDS011;29398;45.328;5.558;2024-02-28T04:54:18;31.70;;;25.27;;
7737;SDS011;29398;45.328;5.558;2024-02-28T04:55:20;32.25;;;24.58;;
7737;SDS011;29398;45.328;5.558;2024-02-28T04:56:21;31.67;;;25.05;;
7737;SDS011;29398;45.328;5.558;2024-02-28T04:57:25;34.28;;;26.52;;
7737;SDS011;29398;45.328;5.558;2024-02-28T04:58:26;33.65;;;26.23;;
7737;SDS011;29398;45.328;5.558;2024-02-28T04:59:28;35.50;;;26.20;;
7737;SDS011;29398;45.328;5.558;2024-02-28T05:00:30;34.65;;;26.60;;
7737;SDS011;29398;45.328;5.558;2024-02-28T05:01:32;34.85;;;26.15;;
7737;SDS011;29398;45.328;5.558;2024-02-28T05:02:34;33.13;;;25.27;;
7737;SDS011;29398;45.328;5.558;2024-02-28T05:03:35;34.28;;;25.75;;
7737;SDS011;29398;45.328;5.558;2024-02-28T05:04:37;32.45;;;24.02;;
7737;SDS011;29398;45.328;5.558;2024-02-28T05:05:38;37.33;;;25.67;;
7737;SDS011;29398;45.328;5.558;2024-02-28T05:06:40;31.23;;;25.30;;
7737;SDS011;29398;45.328;5.558;2024-02-28T05:07:41;32.95;;;25.90;;
7737;SDS011;29398;45.328;5.558;2024-02-28T05:08:43;34.88;;;26.40;;
7737;SDS011;29398;45.328;5.558;2024-02-28T05:09:44;34.67;;;25.90;;
7737;SDS011;29398;45.328;5.558;2024-02-28T05:10:46;32.05;;;25.67;;
7737;SDS011;29398;45.328;5.558;2024-02-28T05:11:48;34.63;;;25.83;;
7737;SDS011;29398;45.328;5.558;2024-02-28T05:12:50;34.95;;;26.15;;
7737;SDS011;29398;45.328;5.558;2024-02-28T05:13:52;36.03;;;26.52;;
7737;SDS011;29398;45.328;5.558;2024-02-28T05:14:53;33.00;;;25.52;;
7737;SDS011;29398;45.328;5.558;2024-02-28T05:15:54;34.60;;;25.65;;
7737;SDS011;29398;45.328;5.558;2024-02-28T05:16:56;34.78;;;26.13;;
7737;SDS011;29398;45.328;5.558;2024-02-28T05:17:57;33.25;;;25.65;;
7737;SDS011;29398;45.328;5.558;2024-02-28T05:18:59;36.15;;;26.67;;
7737;SDS011;29398;45.328;5.558;2024-02-28T05:20:00;34.58;;;24.98;;
7737;SDS011;29398;45.328;5.558;2024-02-28T05:21:02;33.22;;;23.98;;
7737;SDS011;29398;45.328;5.558;2024-02-28T05:22:04;34.38;;;25.15;;
7737;SDS011;29398;45.328;5.558;2024-02-28T05:23:05;33.67;;;25.92;;
7737;SDS011;29398;45.328;5.558;2024-02-28T05:24:07;33.60;;;22.60;;
7737;SDS011;29398;45.328;5.558;2024-02-28T05:25:08;34.05;;;26.05;;
7737;SDS011;29398;45.328;5.558;2024-02-28T05:26:10;32.70;;;25.52;;
7737;SDS011;29398;45.328;5.558;2024-02-28T05:27:11;30.98;;;24.27;;
7737;SDS011;29398;45.328;5.558;2024-02-28T05:28:15;31.65;;;24.67;;
7737;SDS011;29398;45.328;5.558;2024-02-28T05:29:16;35.28;;;25.95;;
7737;SDS011;29398;45.328;5.558;2024-02-28T05:30:18;33.53;;;26.30;;
7737;SDS011;29398;45.328;5.558;2024-02-28T05:31:20;32.85;;;25.60;;
7737;SDS011;29398;45.328;5.558;2024-02-28T05:32:22;34.45;;;25.75;;
7737;SDS011;29398;45.328;5.558;2024-02-28T05:33:24;33.10;;;25.63;;
7737;SDS011;29398;45.328;5.558;2024-02-28T05:34:26;31.83;;;24.88;;
7737;SDS011;29398;45.328;5.558;2024-02-28T05:35:27;32.85;;;25.15;;
7737;SDS011;29398;45.328;5.558;2024-02-28T05:36:29;34.22;;;25.58;;
7737;SDS011;29398;45.328;5.558;2024-02-28T05:37:30;34.13;;;24.55;;
7737;SDS011;29398;45.328;5.558;2024-02-28T05:38:33;32.10;;;25.27;;
7737;SDS011;29398;45.328;5.558;2024-02-28T05:39:34;32.15;;;23.92;;
7737;SDS011;29398;45.328;5.558;2024-02-28T05:40:36;32.72;;;24.88;;
7737;SDS011;29398;45.328;5.558;2024-02-28T05:41:37;33.42;;;25.27;;
7737;SDS011;29398;45.328;5.558;2024-02-28T05:42:39;33.30;;;25.83;;
7737;SDS011;29398;45.328;5.558;2024-02-28T05:43:41;33.42;;;25.50;;
7737;SDS011;29398;45.328;5.558;2024-02-28T05:44:43;34.70;;;25.55;;
7737;SDS011;29398;45.328;5.558;2024-02-28T05:45:44;35.47;;;26.58;;
7737;SDS011;29398;45.328;5.558;2024-02-28T05:46:45;31.45;;;25.38;;
7737;SDS011;29398;45.328;5.558;2024-02-28T05:47:48;32.25;;;24.63;;
7737;SDS011;29398;45.328;5.558;2024-02-28T05:48:49;32.40;;;25.80;;
7737;SDS011;29398;45.328;5.558;2024-02-28T05:49:51;33.03;;;25.63;;
7737;SDS011;29398;45.328;5.558;2024-02-28T05:50:52;31.98;;;25.25;;
7737;SDS011;29398;45.328;5.558;2024-02-28T05:51:54;33.15;;;25.05;;
7737;SDS011;29398;45.328;5.558;2024-02-28T05:52:56;37.13;;;26.95;;
7737;SDS011;29398;45.328;5.558;2024-02-28T05:53:57;36.92;;;26.60;;
7737;SDS011;29398;45.328;5.558;2024-02-28T05:54:59;33.05;;;25.27;;
7737;SDS011;29398;45.328;5.558;2024-02-28T05:56:01;32.65;;;24.90;;
7737;SDS011;29398;45.328;5.558;2024-02-28T05:57:03;30.77;;;24.92;;
7737;SDS011;29398;45.328;5.558;2024-02-28T05:58:04;33.10;;;25.75;;
7737;SDS011;29398;45.328;5.558;2024-02-28T05:59:07;33.75;;;25.58;;
7737;SDS011;29398;45.328;5.558;2024-02-28T06:00:09;33.15;;;25.95;;
7737;SDS011;29398;45.328;5.558;2024-02-28T06:01:14;34.95;;;25.83;;
7737;SDS011;29398;45.328;5.558;2024-02-28T06:02:18;32.85;;;25.83;;
7737;SDS011;29398;45.328;5.558;2024-02-28T06:03:19;34.45;;;26.50;;
7737;SDS011;29398;45.328;5.558;2024-02-28T06:04:21;35.83;;;26.85;;
7737;SDS011;29398;45.328;5.558;2024-02-28T06:05:22;35.95;;;26.55;;
7737;SDS011;29398;45.328;5.558;2024-02-28T06:06:24;37.00;;;27.40;;